createdAt,value
2023-07-08T00:00:14.967Z,17.80
2023-07-08T00:02:42.891Z,18.40
2023-07-08T00:05:14.272Z,19.20
2023-07-08T00:07:41.680Z,17.50
2023-07-08T00:10:15.072Z,18.40
2023-07-08T00:12:43.925Z,18.60
2023-07-08T00:15:11.951Z,18.10
2023-07-08T00:17:39.535Z,18.50
2023-07-08T00:20:15.127Z,17.50
2023-07-08T00:22:42.837Z,19.10
2023-07-08T00:25:10.187Z,18.30
2023-07-08T00:27:37.564Z,17.40
2023-07-08T00:30:26.434Z,17.60
2023-07-08T00:32:57.455Z,17.30
2023-07-08T00:35:30.159Z,18.90
2023-07-08T00:38:02.643Z,17.50
2023-07-08T00:40:31.724Z,18.30
2023-07-08T00:43:01.016Z,18.60
2023-07-08T00:45:53.435Z,14.90
2023-07-08T00:48:26.776Z,18.70
2023-07-08T00:50:54.269Z,16.20
2023-07-08T00:53:28.857Z,17.60
2023-07-08T00:56:18.137Z,17.50
2023-07-08T00:58:50.601Z,16.00
2023-07-08T01:01:18.035Z,16.50
2023-07-08T01:04:24.282Z,16.60
2023-07-08T01:06:58.350Z,17.80
2023-07-08T01:09:31.007Z,15.40
2023-07-08T01:12:00.003Z,15.80
2023-07-08T01:14:28.801Z,16.30
2023-07-08T01:16:56.533Z,17.60
2023-07-08T01:19:33.336Z,16.30
2023-07-08T01:22:03.167Z,15.60
2023-07-08T01:24:31.073Z,15.60
2023-07-08T01:26:59.304Z,15.60
2023-07-08T01:29:26.656Z,15.20
2023-07-08T01:31:56.440Z,14.70
2023-07-08T01:34:23.899Z,14.10
2023-07-08T01:36:55.554Z,15.60
2023-07-08T01:39:24.097Z,14.40
2023-07-08T01:41:52.517Z,14.50
2023-07-08T01:44:31.222Z,15.50
2023-07-08T01:47:06.292Z,14.10
2023-07-08T01:49:33.963Z,14.90
2023-07-08T01:52:01.329Z,15.30
2023-07-08T01:54:28.654Z,14.50
2023-07-08T01:56:59.015Z,14.10
2023-07-08T01:59:26.567Z,12.70
2023-07-08T02:01:56.551Z,14.20
2023-07-08T02:04:25.114Z,13.10
2023-07-08T02:06:56.427Z,12.90
2023-07-08T02:09:24.194Z,14.30
2023-07-08T02:11:52.547Z,13.20
2023-07-08T02:14:20.672Z,12.80
2023-07-08T02:16:48.583Z,13.50
2023-07-08T02:19:16.129Z,13.10
2023-07-08T02:21:44.033Z,12.80
2023-07-08T02:24:11.475Z,12.10
2023-07-08T02:26:38.800Z,13.30
2023-07-08T02:29:06.198Z,13.20
2023-07-08T02:31:33.547Z,14.10
2023-07-08T02:34:03.232Z,12.50
2023-07-08T02:36:30.607Z,13.60
2023-07-08T02:38:57.856Z,12.40
2023-07-08T02:41:25.171Z,12.70
2023-07-08T02:43:52.704Z,12.70
2023-07-08T02:46:20.186Z,13.20
2023-07-08T02:48:47.517Z,12.90
2023-07-08T02:51:14.812Z,12.90
2023-07-08T02:53:42.370Z,13.00
2023-07-08T02:56:09.678Z,12.00
2023-07-08T02:58:37.223Z,12.50
2023-07-08T03:01:05.051Z,11.20
2023-07-08T03:03:32.782Z,11.00
2023-07-08T03:06:01.860Z,12.10
2023-07-08T03:08:29.526Z,12.10
2023-07-08T03:11:01.616Z,11.20
2023-07-08T03:13:29.698Z,11.30
2023-07-08T03:15:58.496Z,12.10
2023-07-08T03:18:27.880Z,11.30
2023-07-08T03:20:57.164Z,12.10
2023-07-08T03:23:25.329Z,11.40
2023-07-08T03:25:53.460Z,10.80
2023-07-08T03:28:21.386Z,10.80
2023-07-08T03:30:52.472Z,11.00
2023-07-08T03:33:19.901Z,10.10
2023-07-08T03:35:47.361Z,11.00
2023-07-08T03:38:14.779Z,10.50
2023-07-08T03:40:42.376Z,10.20
2023-07-08T03:43:09.666Z,10.60
2023-07-08T03:45:37.692Z,10.40
2023-07-08T03:48:05.589Z,11.40
2023-07-08T03:50:33.261Z,10.90
2023-07-08T03:53:00.745Z,9.90
2023-07-08T03:55:30.482Z,10.50
2023-07-08T03:57:58.456Z,9.90
2023-07-08T04:00:26.750Z,10.20
2023-07-08T04:02:54.265Z,10.30
2023-07-08T04:05:23.716Z,9.90
2023-07-08T04:07:51.691Z,9.50
2023-07-08T04:10:19.221Z,9.90
2023-07-08T04:12:46.562Z,9.10
2023-07-08T04:15:14.605Z,9.40
2023-07-08T04:17:49.540Z,8.80
2023-07-08T04:20:19.877Z,9.30
2023-07-08T04:22:47.426Z,9.60
2023-07-08T04:25:15.597Z,9.00
2023-07-08T04:27:43.084Z,9.70
2023-07-08T04:30:19.732Z,8.90
2023-07-08T04:32:47.119Z,9.00
2023-07-08T04:35:14.551Z,8.70
2023-07-08T04:37:42.002Z,8.50
2023-07-08T04:40:16.066Z,9.40
2023-07-08T04:42:43.418Z,9.20
2023-07-08T04:45:10.845Z,8.70
2023-07-08T04:47:38.174Z,8.80
2023-07-08T04:50:05.939Z,8.10
2023-07-08T04:52:33.247Z,8.60
2023-07-08T04:55:00.617Z,8.40
2023-07-08T04:57:27.909Z,9.00
2023-07-08T04:59:55.209Z,9.10
2023-07-08T05:02:22.550Z,8.00
2023-07-08T05:04:49.878Z,10.50
2023-07-08T05:07:17.419Z,8.80
2023-07-08T05:09:44.749Z,8.40
2023-07-08T05:12:12.039Z,8.30
2023-07-08T05:14:39.674Z,8.40
2023-07-08T05:17:07.339Z,8.50
2023-07-08T05:19:34.808Z,8.70
2023-07-08T05:22:02.590Z,8.20
2023-07-08T05:24:30.020Z,8.50
2023-07-08T05:26:57.410Z,8.50
2023-07-08T05:29:25.151Z,9.10
2023-07-08T05:31:52.535Z,8.10
2023-07-08T05:34:19.851Z,8.20
2023-07-08T05:36:47.219Z,8.30
2023-07-08T05:39:14.587Z,9.40
2023-07-08T05:41:41.860Z,7.80
2023-07-08T05:44:09.224Z,7.90
2023-07-08T05:46:36.723Z,8.40
2023-07-08T05:49:04.108Z,7.50
2023-07-08T05:51:31.499Z,7.00
2023-07-08T05:53:58.906Z,9.30
2023-07-08T05:56:26.194Z,8.60
2023-07-08T05:58:53.518Z,7.70
2023-07-08T06:01:20.863Z,8.20
2023-07-08T06:03:48.540Z,7.50
2023-07-08T06:06:16.033Z,8.50
2023-07-08T06:08:43.643Z,8.20
2023-07-08T06:11:10.914Z,7.10
2023-07-08T06:13:38.320Z,7.70
2023-07-08T06:16:06.409Z,8.60
2023-07-08T06:18:33.808Z,7.70
2023-07-08T06:21:01.582Z,7.50
2023-07-08T06:23:29.334Z,7.30
2023-07-08T06:25:57.224Z,7.30
2023-07-08T06:28:24.694Z,7.40
2023-07-08T06:30:52.003Z,7.00
2023-07-08T06:33:19.302Z,8.20
2023-07-08T06:35:46.630Z,8.10
2023-07-08T06:38:13.987Z,6.90
2023-07-08T06:40:41.446Z,6.50
2023-07-08T06:43:08.783Z,7.00
2023-07-08T06:45:45.183Z,7.80
2023-07-08T06:48:12.587Z,7.50
2023-07-08T06:50:39.913Z,7.50
2023-07-08T06:53:08.280Z,6.80
2023-07-08T06:55:35.577Z,6.30
2023-07-08T06:58:02.853Z,7.00
2023-07-08T07:00:30.162Z,9.90
2023-07-08T07:02:57.458Z,6.90
2023-07-08T07:05:25.133Z,6.70
2023-07-08T07:07:53.828Z,6.80
2023-07-08T07:10:21.254Z,6.90
2023-07-08T07:12:48.564Z,6.60
2023-07-08T07:15:16.461Z,6.30
2023-07-08T07:17:43.951Z,6.40
2023-07-08T07:20:11.714Z,6.50
2023-07-08T07:22:39.190Z,6.20
2023-07-08T07:25:06.852Z,5.90
2023-07-08T07:27:34.379Z,6.40
2023-07-08T07:30:01.904Z,6.00
2023-07-08T07:32:30.647Z,5.40
2023-07-08T07:34:59.532Z,5.30
2023-07-08T07:37:26.879Z,6.50
2023-07-08T07:39:54.327Z,5.70
2023-07-08T07:42:21.737Z,6.30
2023-07-08T07:44:49.267Z,5.50
2023-07-08T07:47:16.893Z,5.70
2023-07-08T07:49:44.403Z,6.00
2023-07-08T07:52:12.198Z,5.70
2023-07-08T07:54:40.141Z,5.80
2023-07-08T07:57:07.941Z,5.40
2023-07-08T07:59:35.358Z,5.90
2023-07-08T08:02:02.842Z,6.00
2023-07-08T08:04:30.223Z,6.20
2023-07-08T08:06:57.605Z,6.20
2023-07-08T08:09:25.053Z,5.50
2023-07-08T08:11:53.149Z,6.10
2023-07-08T08:14:20.493Z,5.40
2023-07-08T08:16:48.277Z,5.50
2023-07-08T08:19:15.803Z,5.80
2023-07-08T08:21:43.606Z,5.30
2023-07-08T08:24:11.322Z,9.30
2023-07-08T08:26:38.667Z,5.50
2023-07-08T08:29:05.989Z,6.30
2023-07-08T08:31:33.464Z,5.90
2023-07-08T08:34:00.802Z,6.20
2023-07-08T08:36:28.181Z,5.10
2023-07-08T08:38:55.533Z,5.50
2023-07-08T08:41:31.246Z,5.80
2023-07-08T08:43:58.724Z,5.40
2023-07-08T08:46:48.156Z,5.30
2023-07-08T08:49:21.805Z,5.90
2023-07-08T08:51:49.669Z,5.30
2023-07-08T08:54:16.989Z,5.40
2023-07-08T08:56:52.957Z,5.20
2023-07-08T08:59:28.616Z,5.40
2023-07-08T09:01:56.668Z,4.90
2023-07-08T09:04:31.324Z,5.30
2023-07-08T09:07:09.348Z,5.30
2023-07-08T09:09:47.011Z,4.60
2023-07-08T09:12:19.339Z,4.60
2023-07-08T09:14:46.949Z,5.40
2023-07-08T09:17:37.852Z,5.20
2023-07-08T09:20:18.121Z,4.50
2023-07-08T09:23:04.323Z,4.70
2023-07-08T09:25:46.926Z,4.70
2023-07-08T09:28:16.540Z,5.30
2023-07-08T09:30:50.186Z,4.80
2023-07-08T09:33:17.686Z,5.20
2023-07-08T09:35:49.998Z,4.80
2023-07-08T09:38:19.017Z,4.90
2023-07-08T09:40:52.272Z,4.60
2023-07-08T09:43:39.497Z,4.70
2023-07-08T09:46:07.046Z,4.80
2023-07-08T09:48:37.593Z,5.50
2023-07-08T09:51:05.137Z,4.50
2023-07-08T09:53:32.421Z,4.00
2023-07-08T09:56:00.624Z,4.30
2023-07-08T09:58:33.528Z,3.70
2023-07-08T10:01:03.182Z,3.80
2023-07-08T10:03:33.083Z,3.90
2023-07-08T10:06:04.572Z,4.70
2023-07-08T10:08:41.258Z,4.50
2023-07-08T10:11:34.757Z,4.70
2023-07-08T10:14:17.805Z,6.00
2023-07-08T10:16:46.330Z,3.80
2023-07-08T10:19:15.234Z,4.70
2023-07-08T10:21:45.947Z,6.10
2023-07-08T10:24:35.338Z,5.10
2023-07-08T10:27:28.167Z,4.50
2023-07-08T10:29:59.599Z,5.20
2023-07-08T10:32:34.538Z,5.10
2023-07-08T10:35:15.986Z,4.90
2023-07-08T10:37:46.774Z,6.00
2023-07-08T10:40:35.199Z,4.50
2023-07-08T10:43:30.960Z,4.80
2023-07-08T10:45:58.403Z,5.00
2023-07-08T10:48:31.967Z,5.40
2023-07-08T10:51:34.855Z,5.70
2023-07-08T10:54:27.056Z,5.50
2023-07-08T10:57:03.557Z,5.50
2023-07-08T11:00:03.647Z,5.00
2023-07-08T11:02:55.866Z,5.80
2023-07-08T11:05:23.207Z,6.50
2023-07-08T11:08:01.179Z,6.40
2023-07-08T11:10:31.710Z,5.30
2023-07-08T11:13:26.629Z,5.10
2023-07-08T11:16:08.326Z,4.90
2023-07-08T11:18:48.019Z,4.90
2023-07-08T11:21:37.164Z,7.30
2023-07-08T11:24:23.867Z,6.40
2023-07-08T11:26:55.220Z,6.20
2023-07-08T11:29:38.483Z,5.90
2023-07-08T11:32:06.620Z,5.80
2023-07-08T11:34:34.410Z,7.40
2023-07-08T11:37:02.006Z,7.90
2023-07-08T11:39:31.013Z,7.40
2023-07-08T11:42:24.748Z,6.70
2023-07-08T11:44:54.562Z,6.50
2023-07-08T11:47:36.719Z,6.90
2023-07-08T11:50:04.334Z,6.70
2023-07-08T11:52:31.978Z,7.60
2023-07-08T11:55:31.006Z,6.80
2023-07-08T11:58:00.789Z,7.80
2023-07-08T12:00:33.396Z,6.90
2023-07-08T12:03:17.635Z,6.50
2023-07-08T12:05:45.072Z,6.30
2023-07-08T12:08:14.330Z,6.80
2023-07-08T12:10:48.453Z,5.80
2023-07-08T12:13:19.288Z,5.60
2023-07-08T12:15:46.998Z,5.90
2023-07-08T12:18:22.464Z,6.00
2023-07-08T12:20:54.612Z,5.90
2023-07-08T12:23:23.584Z,6.20
2023-07-08T12:25:51.571Z,5.50
2023-07-08T12:28:19.417Z,6.20
2023-07-08T12:30:47.296Z,5.70
2023-07-08T12:33:27.108Z,5.70
2023-07-08T12:35:54.878Z,5.30
2023-07-08T12:38:34.018Z,5.10
2023-07-08T12:41:03.374Z,4.70
2023-07-08T12:43:31.131Z,5.00
2023-07-08T12:45:59.679Z,4.90
2023-07-08T12:48:26.987Z,4.70
2023-07-08T12:50:54.321Z,4.70
2023-07-08T12:53:21.609Z,4.60
2023-07-08T12:55:49.331Z,4.80
2023-07-08T12:58:26.682Z,5.00
2023-07-08T13:00:54.201Z,4.90
2023-07-08T13:03:24.143Z,4.90
2023-07-08T13:05:52.204Z,4.20
2023-07-08T13:08:21.912Z,5.10
2023-07-08T13:10:57.358Z,4.20
2023-07-08T13:13:27.456Z,4.30
2023-07-08T13:15:55.163Z,4.10
2023-07-08T13:18:33.852Z,4.00
2023-07-08T13:21:01.751Z,4.00
2023-07-08T13:23:29.448Z,4.50
2023-07-08T13:25:57.234Z,3.80
2023-07-08T13:28:29.082Z,4.30
2023-07-08T13:30:58.569Z,4.30
2023-07-08T13:33:33.186Z,4.60
2023-07-08T13:36:03.246Z,4.50
2023-07-08T13:38:35.420Z,4.60
2023-07-08T13:41:04.271Z,5.00
2023-07-08T13:43:33.364Z,5.30
2023-07-08T13:46:00.943Z,4.60
2023-07-08T13:48:43.807Z,4.80
2023-07-08T13:51:19.162Z,5.30
2023-07-08T13:53:55.714Z,5.30
2023-07-08T13:56:26.404Z,4.80
2023-07-08T13:59:01.055Z,5.40
2023-07-08T14:01:28.649Z,6.20
2023-07-08T14:03:56.452Z,5.10
2023-07-08T14:06:26.117Z,6.60
2023-07-08T14:08:56.393Z,5.80
2023-07-08T14:11:24.112Z,5.90
2023-07-08T14:13:51.540Z,5.50
2023-07-08T14:16:31.127Z,5.50
2023-07-08T14:18:59.239Z,6.10
2023-07-08T14:21:26.491Z,5.30
2023-07-08T14:23:54.997Z,5.70
2023-07-08T14:26:22.439Z,5.80
2023-07-08T14:28:50.410Z,5.80
2023-07-08T14:31:21.640Z,5.30
2023-07-08T14:33:49.063Z,5.10
2023-07-08T14:36:16.355Z,4.80
2023-07-08T14:38:44.114Z,5.40
2023-07-08T14:41:11.519Z,4.90
2023-07-08T14:43:40.544Z,4.70
2023-07-08T14:46:10.049Z,4.20
2023-07-08T14:48:37.522Z,5.60
2023-07-08T14:51:04.966Z,4.70
2023-07-08T14:53:33.255Z,4.80
2023-07-08T14:56:01.078Z,4.70
2023-07-08T14:58:32.913Z,4.40
2023-07-08T15:01:01.408Z,4.10
2023-07-08T15:03:29.204Z,4.20
2023-07-08T15:05:56.832Z,4.40
2023-07-08T15:08:24.404Z,3.90
2023-07-08T15:10:52.567Z,4.50
2023-07-08T15:13:22.278Z,4.20
2023-07-08T15:15:50.132Z,4.30
2023-07-08T15:18:18.562Z,4.90
2023-07-08T15:20:46.238Z,4.80
2023-07-08T15:23:13.746Z,4.40
2023-07-08T15:25:43.065Z,4.20
2023-07-08T15:28:19.570Z,4.80
2023-07-08T15:30:47.090Z,4.00
2023-07-08T15:33:16.318Z,4.10
2023-07-08T15:35:44.884Z,3.80
2023-07-08T15:38:12.405Z,4.00
2023-07-08T15:40:39.768Z,4.00
2023-07-08T15:43:07.137Z,3.70
2023-07-08T15:45:36.199Z,3.60
2023-07-08T15:48:03.918Z,3.50
2023-07-08T15:50:31.392Z,3.80
2023-07-08T15:52:58.664Z,4.20
2023-07-08T15:55:31.352Z,4.70
2023-07-08T15:58:03.252Z,4.70
2023-07-08T16:00:32.082Z,4.20
2023-07-08T16:03:02.085Z,4.40
2023-07-08T16:05:29.812Z,4.30
2023-07-08T16:07:57.263Z,4.20
2023-07-08T16:10:25.937Z,3.80
2023-07-08T16:12:54.384Z,3.90
2023-07-08T16:15:30.064Z,3.80
2023-07-08T16:17:58.196Z,3.80
2023-07-08T16:20:27.295Z,4.40
2023-07-08T16:22:54.609Z,4.20
2023-07-08T16:25:28.813Z,4.30
2023-07-08T16:27:56.383Z,4.00
2023-07-08T16:30:23.792Z,3.90
2023-07-08T16:32:51.158Z,3.80
2023-07-08T16:35:19.743Z,4.20
2023-07-08T16:37:48.035Z,4.20
2023-07-08T16:40:17.697Z,3.30
2023-07-08T16:42:45.895Z,3.50
2023-07-08T16:45:14.644Z,3.80
2023-07-08T16:47:42.153Z,3.50
2023-07-08T16:50:10.127Z,3.70
2023-07-08T16:52:38.088Z,3.90
2023-07-08T16:55:16.718Z,4.10
2023-07-08T16:57:44.312Z,4.10
2023-07-08T17:00:17.672Z,3.90
2023-07-08T17:02:45.495Z,3.90
2023-07-08T17:05:36.417Z,4.10
2023-07-08T17:08:04.224Z,3.90
2023-07-08T17:10:31.706Z,3.90
2023-07-08T17:12:59.091Z,4.30
2023-07-08T17:15:29.274Z,4.30
2023-07-08T17:17:58.685Z,4.20
2023-07-08T17:20:28.009Z,3.40
2023-07-08T17:22:55.369Z,4.00
2023-07-08T17:25:24.976Z,4.60
2023-07-08T17:27:54.601Z,3.80
2023-07-08T17:30:22.429Z,3.70
2023-07-08T17:32:51.183Z,4.70
2023-07-08T17:35:19.179Z,4.00
2023-07-08T17:37:46.589Z,4.30
2023-07-08T17:40:25.330Z,3.60
2023-07-08T17:42:53.911Z,4.60
2023-07-08T17:45:23.681Z,3.60
2023-07-08T17:47:51.196Z,4.00
2023-07-08T17:50:23.345Z,3.60
2023-07-08T17:52:51.219Z,3.30
2023-07-08T17:55:19.020Z,3.60
2023-07-08T17:57:48.741Z,3.20
2023-07-08T18:00:22.767Z,3.50
2023-07-08T18:02:50.337Z,3.20
2023-07-08T18:05:22.501Z,4.10
2023-07-08T18:07:50.358Z,5.60
2023-07-08T18:10:17.987Z,4.20
2023-07-08T18:12:45.568Z,4.30
2023-07-08T18:15:16.387Z,4.10
2023-07-08T18:17:43.952Z,4.60
2023-07-08T18:20:11.898Z,4.50
2023-07-08T18:22:40.169Z,3.70
2023-07-08T18:25:25.746Z,3.50
2023-07-08T18:27:53.129Z,3.90
2023-07-08T18:30:21.133Z,4.20
2023-07-08T18:32:49.870Z,4.20
2023-07-08T18:35:22.475Z,4.60
2023-07-08T18:37:51.411Z,4.40
2023-07-08T18:40:30.096Z,5.60
2023-07-08T18:43:06.912Z,4.00
2023-07-08T18:45:34.675Z,4.00
2023-07-08T18:48:02.121Z,3.90
2023-07-08T18:50:29.440Z,3.60
2023-07-08T18:52:56.922Z,3.80
2023-07-08T18:55:25.152Z,4.00
2023-07-08T18:57:55.683Z,4.80
2023-07-08T19:00:23.006Z,4.40
2023-07-08T19:02:54.749Z,4.20
2023-07-08T19:05:22.218Z,4.00
2023-07-08T19:07:49.998Z,3.40
2023-07-08T19:10:18.134Z,3.60
2023-07-08T19:12:49.237Z,4.00
2023-07-08T19:15:22.083Z,3.80
2023-07-08T19:17:50.171Z,3.70
2023-07-08T19:20:17.860Z,4.10
2023-07-08T19:22:48.689Z,3.90
2023-07-08T19:25:17.643Z,3.70
2023-07-08T19:27:45.086Z,4.40
2023-07-08T19:30:13.288Z,5.30
2023-07-08T19:32:42.231Z,4.10
2023-07-08T19:35:15.966Z,3.60
2023-07-08T19:37:43.571Z,3.90
2023-07-08T19:40:13.681Z,4.20
2023-07-08T19:42:41.361Z,4.50
2023-07-08T19:45:28.521Z,3.70
2023-07-08T19:47:57.124Z,4.50
2023-07-08T19:50:26.201Z,4.80
2023-07-08T19:52:53.487Z,4.30
2023-07-08T19:55:20.820Z,4.00
2023-07-08T19:57:52.969Z,4.00
2023-07-08T20:00:23.055Z,4.80
2023-07-08T20:02:51.466Z,4.30
2023-07-08T20:05:19.990Z,3.90
2023-07-08T20:07:47.323Z,4.10
2023-07-08T20:10:16.779Z,4.60
2023-07-08T20:12:44.337Z,3.90
2023-07-08T20:15:13.145Z,4.10
2023-07-08T20:17:40.850Z,4.30
2023-07-08T20:20:22.848Z,4.50
2023-07-08T20:22:51.571Z,4.60
2023-07-08T20:25:19.272Z,4.50
2023-07-08T20:27:47.297Z,4.60
2023-07-08T20:30:23.152Z,5.10
2023-07-08T20:32:50.810Z,4.00
2023-07-08T20:35:20.061Z,4.60
2023-07-08T20:37:47.681Z,4.40
2023-07-08T20:40:25.474Z,5.30
2023-07-08T20:42:55.664Z,4.80
2023-07-08T20:45:31.243Z,4.40
2023-07-08T20:47:59.450Z,4.50
2023-07-08T20:50:27.711Z,4.50
2023-07-08T20:52:55.493Z,4.60
2023-07-08T20:55:23.071Z,5.20
2023-07-08T20:57:50.642Z,4.70
2023-07-08T21:00:25.844Z,5.00
2023-07-08T21:02:53.817Z,4.30
2023-07-08T21:05:21.368Z,4.20
2023-07-08T21:07:48.802Z,4.90
2023-07-08T21:10:20.346Z,5.50
2023-07-08T21:15:15.700Z,5.90
2023-07-08T21:17:43.863Z,5.50
2023-07-08T21:20:21.336Z,4.80
2023-07-08T21:22:48.896Z,4.10
2023-07-08T21:25:17.095Z,5.30
2023-07-08T21:27:45.134Z,6.00
2023-07-08T21:30:25.606Z,5.60
2023-07-08T21:32:54.086Z,5.70
2023-07-08T21:35:25.197Z,4.90
2023-07-08T21:37:56.649Z,4.80
2023-07-08T21:40:48.622Z,5.10
2023-07-08T21:45:45.547Z,5.00
2023-07-08T21:48:14.269Z,5.80
2023-07-08T21:50:55.905Z,5.10
2023-07-08T21:53:29.083Z,5.20
2023-07-08T21:55:56.818Z,5.00
2023-07-08T21:58:24.569Z,5.40
2023-07-08T22:00:52.264Z,5.80
2023-07-08T22:03:30.789Z,5.40
2023-07-08T22:06:01.719Z,5.70
2023-07-08T22:08:29.956Z,5.00
2023-07-08T22:11:01.426Z,5.80
2023-07-08T22:13:40.964Z,6.10
2023-07-08T22:16:12.284Z,5.70
2023-07-08T22:18:42.769Z,5.20
2023-07-08T22:21:17.105Z,4.50
2023-07-08T22:23:44.531Z,5.70
2023-07-08T22:26:11.976Z,5.30
2023-07-08T22:28:39.800Z,5.10
2023-07-08T22:31:34.278Z,4.60
2023-07-08T22:34:03.289Z,4.90
2023-07-08T22:36:30.770Z,4.90
2023-07-08T22:39:06.466Z,4.90
2023-07-08T22:41:38.361Z,5.30
2023-07-08T22:44:05.638Z,4.60
2023-07-08T22:46:33.092Z,5.90
2023-07-08T22:49:01.339Z,5.30
2023-07-08T22:51:29.280Z,4.70
2023-07-08T22:53:57.321Z,4.60
2023-07-08T22:56:24.589Z,5.00
2023-07-08T22:58:51.897Z,5.10
2023-07-08T23:01:19.269Z,5.00
2023-07-08T23:03:46.562Z,4.90
2023-07-08T23:06:16.729Z,5.30
2023-07-08T23:08:43.978Z,4.80
2023-07-08T23:11:13.550Z,5.10
2023-07-08T23:13:42.728Z,3.90
2023-07-08T23:16:18.628Z,6.20
2023-07-08T23:18:48.100Z,5.60
2023-07-08T23:21:16.508Z,4.80
2023-07-08T23:23:43.850Z,4.40
2023-07-08T23:26:21.799Z,4.20
2023-07-08T23:28:58.249Z,4.30
2023-07-08T23:31:26.405Z,4.50
2023-07-08T23:33:53.881Z,5.20
2023-07-08T23:36:29.185Z,4.70
2023-07-08T23:38:56.504Z,4.70
2023-07-08T23:41:24.061Z,4.30
2023-07-08T23:43:51.287Z,4.60
2023-07-08T23:46:26.983Z,4.60
2023-07-08T23:48:54.500Z,4.00
2023-07-08T23:51:22.910Z,4.40
2023-07-08T23:53:50.275Z,4.40
2023-07-08T23:56:18.435Z,4.30
2023-07-08T23:58:45.844Z,4.40
